sensor_id;sensor_type;location;lat;lon;timestamp;P1;durP1;ratioP1;P2;durP2;ratioP2
73841;SDS011;62184;52.006;5.924;2023-02-11T00:01:12;30.27;;;14.68;;
73841;SDS011;62184;52.006;5.924;2023-02-11T00:03:45;26.70;;;15.02;;
73841;SDS011;62184;52.006;5.924;2023-02-11T00:06:11;26.77;;;14.45;;
73841;SDS011;62184;52.006;5.924;2023-02-11T00:08:38;25.75;;;13.50;;
73841;SDS011;62184;52.006;5.924;2023-02-11T00:11:09;24.20;;;13.57;;
73841;SDS011;62184;52.006;5.924;2023-02-11T00:13:38;23.77;;;13.50;;
73841;SDS011;62184;52.006;5.924;2023-02-11T00:16:05;25.83;;;13.47;;
73841;SDS011;62184;52.006;5.924;2023-02-11T00:18:33;25.02;;;12.90;;
73841;SDS011;62184;52.006;5.924;2023-02-11T00:21:04;27.13;;;12.53;;
73841;SDS011;62184;52.006;5.924;2023-02-11T00:23:32;24.60;;;12.87;;
73841;SDS011;62184;52.006;5.924;2023-02-11T00:25:58;22.43;;;12.27;;
73841;SDS011;62184;52.006;5.924;2023-02-11T00:28:27;25.00;;;12.40;;
73841;SDS011;62184;52.006;5.924;2023-02-11T00:30:54;22.33;;;12.15;;
73841;SDS011;62184;52.006;5.924;2023-02-11T00:33:21;24.42;;;11.60;;
73841;SDS011;62184;52.006;5.924;2023-02-11T00:35:48;22.23;;;11.80;;
73841;SDS011;62184;52.006;5.924;2023-02-11T00:38:15;20.45;;;10.40;;
73841;SDS011;62184;52.006;5.924;2023-02-11T00:40:42;22.33;;;11.47;;
73841;SDS011;62184;52.006;5.924;2023-02-11T00:43:08;21.50;;;10.83;;
73841;SDS011;62184;52.006;5.924;2023-02-11T00:45:37;22.50;;;10.70;;
73841;SDS011;62184;52.006;5.924;2023-02-11T00:48:03;21.65;;;10.55;;
73841;SDS011;62184;52.006;5.924;2023-02-11T00:50:30;22.60;;;10.43;;
73841;SDS011;62184;52.006;5.924;2023-02-11T00:52:56;22.40;;;10.63;;
73841;SDS011;62184;52.006;5.924;2023-02-11T00:55:23;20.90;;;10.85;;
73841;SDS011;62184;52.006;5.924;2023-02-11T00:57:49;21.30;;;10.33;;
73841;SDS011;62184;52.006;5.924;2023-02-11T01:00:16;23.00;;;10.10;;
73841;SDS011;62184;52.006;5.924;2023-02-11T01:02:45;20.63;;;10.10;;
73841;SDS011;62184;52.006;5.924;2023-02-11T01:05:12;20.27;;;9.75;;
73841;SDS011;62184;52.006;5.924;2023-02-11T01:07:38;21.85;;;9.80;;
73841;SDS011;62184;52.006;5.924;2023-02-11T01:10:05;22.15;;;9.43;;
73841;SDS011;62184;52.006;5.924;2023-02-11T01:12:31;22.83;;;9.70;;
73841;SDS011;62184;52.006;5.924;2023-02-11T01:14:58;24.58;;;9.27;;
73841;SDS011;62184;52.006;5.924;2023-02-11T01:17:24;21.50;;;9.48;;
73841;SDS011;62184;52.006;5.924;2023-02-11T01:19:53;23.00;;;9.95;;
73841;SDS011;62184;52.006;5.924;2023-02-11T01:22:20;25.20;;;10.32;;
73841;SDS011;62184;52.006;5.924;2023-02-11T01:24:46;22.48;;;9.43;;
73841;SDS011;62184;52.006;5.924;2023-02-11T01:27:13;21.05;;;9.80;;
73841;SDS011;62184;52.006;5.924;2023-02-11T01:29:39;19.70;;;9.25;;
73841;SDS011;62184;52.006;5.924;2023-02-11T01:32:06;23.55;;;10.00;;
73841;SDS011;62184;52.006;5.924;2023-02-11T01:34:32;21.90;;;10.17;;
73841;SDS011;62184;52.006;5.924;2023-02-11T01:37:01;22.70;;;9.30;;
73841;SDS011;62184;52.006;5.924;2023-02-11T01:39:28;19.42;;;9.30;;
73841;SDS011;62184;52.006;5.924;2023-02-11T01:41:57;19.43;;;9.30;;
73841;SDS011;62184;52.006;5.924;2023-02-11T01:44:25;23.33;;;9.25;;
73841;SDS011;62184;52.006;5.924;2023-02-11T01:46:54;25.25;;;9.88;;
73841;SDS011;62184;52.006;5.924;2023-02-11T01:49:22;23.07;;;10.00;;
73841;SDS011;62184;52.006;5.924;2023-02-11T01:51:54;22.95;;;9.30;;
73841;SDS011;62184;52.006;5.924;2023-02-11T01:54:30;19.92;;;9.43;;
73841;SDS011;62184;52.006;5.924;2023-02-11T01:57:02;22.00;;;9.30;;
73841;SDS011;62184;52.006;5.924;2023-02-11T01:59:33;23.45;;;9.60;;
73841;SDS011;62184;52.006;5.924;2023-02-11T02:02:09;19.67;;;9.73;;
73841;SDS011;62184;52.006;5.924;2023-02-11T02:04:43;22.50;;;9.37;;
73841;SDS011;62184;52.006;5.924;2023-02-11T02:07:24;23.63;;;9.93;;
73841;SDS011;62184;52.006;5.924;2023-02-11T02:10:02;18.45;;;9.13;;
73841;SDS011;62184;52.006;5.924;2023-02-11T02:12:35;20.42;;;9.05;;
73841;SDS011;62184;52.006;5.924;2023-02-11T02:15:10;20.55;;;8.77;;
73841;SDS011;62184;52.006;5.924;2023-02-11T02:17:53;20.17;;;8.82;;
73841;SDS011;62184;52.006;5.924;2023-02-11T02:21:08;20.70;;;9.70;;
73841;SDS011;62184;52.006;5.924;2023-02-11T02:27:41;25.60;;;9.35;;
73841;SDS011;62184;52.006;5.924;2023-02-11T02:30:34;20.85;;;9.18;;
73841;SDS011;62184;52.006;5.924;2023-02-11T02:33:35;23.35;;;9.57;;
73841;SDS011;62184;52.006;5.924;2023-02-11T02:36:13;20.08;;;9.40;;
73841;SDS011;62184;52.006;5.924;2023-02-11T02:38:48;21.08;;;9.77;;
73841;SDS011;62184;52.006;5.924;2023-02-11T02:41:22;23.85;;;9.40;;
73841;SDS011;62184;52.006;5.924;2023-02-11T02:43:54;23.10;;;10.10;;
73841;SDS011;62184;52.006;5.924;2023-02-11T02:46:22;21.87;;;9.07;;
73841;SDS011;62184;52.006;5.924;2023-02-11T02:48:55;20.90;;;8.97;;
73841;SDS011;62184;52.006;5.924;2023-02-11T02:51:26;20.63;;;10.05;;
73841;SDS011;62184;52.006;5.924;2023-02-11T02:54:23;23.77;;;9.47;;
73841;SDS011;62184;52.006;5.924;2023-02-11T02:57:22;20.73;;;9.00;;
73841;SDS011;62184;52.006;5.924;2023-02-11T03:00:07;20.40;;;9.32;;
73841;SDS011;62184;52.006;5.924;2023-02-11T03:02:56;20.27;;;8.93;;
73841;SDS011;62184;52.006;5.924;2023-02-11T03:05:43;22.60;;;9.30;;
73841;SDS011;62184;52.006;5.924;2023-02-11T03:08:23;24.15;;;9.60;;
73841;SDS011;62184;52.006;5.924;2023-02-11T03:10:58;23.63;;;9.70;;
73841;SDS011;62184;52.006;5.924;2023-02-11T03:13:29;24.77;;;9.35;;
73841;SDS011;62184;52.006;5.924;2023-02-11T03:16:01;25.73;;;9.77;;
73841;SDS011;62184;52.006;5.924;2023-02-11T03:18:35;23.75;;;10.05;;
73841;SDS011;62184;52.006;5.924;2023-02-11T03:21:09;20.40;;;9.55;;
73841;SDS011;62184;52.006;5.924;2023-02-11T03:23:40;23.83;;;9.80;;
73841;SDS011;62184;52.006;5.924;2023-02-11T03:26:15;24.60;;;10.18;;
73841;SDS011;62184;52.006;5.924;2023-02-11T03:28:49;22.52;;;9.60;;
73841;SDS011;62184;52.006;5.924;2023-02-11T03:31:27;20.80;;;10.85;;
73841;SDS011;62184;52.006;5.924;2023-02-11T03:34:03;25.77;;;10.67;;
73841;SDS011;62184;52.006;5.924;2023-02-11T03:36:41;24.45;;;10.27;;
73841;SDS011;62184;52.006;5.924;2023-02-11T03:39:17;24.67;;;10.15;;
73841;SDS011;62184;52.006;5.924;2023-02-11T03:41:50;25.15;;;10.75;;
73841;SDS011;62184;52.006;5.924;2023-02-11T03:44:21;25.20;;;11.20;;
73841;SDS011;62184;52.006;5.924;2023-02-11T03:46:52;21.52;;;10.98;;
73841;SDS011;62184;52.006;5.924;2023-02-11T03:49:21;23.15;;;11.02;;
73841;SDS011;62184;52.006;5.924;2023-02-11T03:51:54;26.20;;;11.30;;
73841;SDS011;62184;52.006;5.924;2023-02-11T03:54:23;26.80;;;11.35;;
73841;SDS011;62184;52.006;5.924;2023-02-11T03:56:56;24.95;;;11.52;;
73841;SDS011;62184;52.006;5.924;2023-02-11T03:59:26;23.98;;;11.52;;
73841;SDS011;62184;52.006;5.924;2023-02-11T04:01:53;25.67;;;12.35;;
73841;SDS011;62184;52.006;5.924;2023-02-11T04:04:20;27.40;;;12.10;;
73841;SDS011;62184;52.006;5.924;2023-02-11T04:06:46;25.87;;;12.53;;
73841;SDS011;62184;52.006;5.924;2023-02-11T04:09:15;26.58;;;12.55;;
73841;SDS011;62184;52.006;5.924;2023-02-11T04:11:42;28.73;;;12.50;;
73841;SDS011;62184;52.006;5.924;2023-02-11T04:14:08;24.52;;;12.35;;
73841;SDS011;62184;52.006;5.924;2023-02-11T04:16:35;29.33;;;12.55;;
73841;SDS011;62184;52.006;5.924;2023-02-11T04:19:01;27.38;;;12.63;;
73841;SDS011;62184;52.006;5.924;2023-02-11T04:21:28;29.10;;;13.73;;
73841;SDS011;62184;52.006;5.924;2023-02-11T04:23:54;27.83;;;12.75;;
73841;SDS011;62184;52.006;5.924;2023-02-11T04:26:23;30.25;;;14.20;;
73841;SDS011;62184;52.006;5.924;2023-02-11T04:28:50;30.50;;;14.98;;
73841;SDS011;62184;52.006;5.924;2023-02-11T04:31:16;31.55;;;15.07;;
73841;SDS011;62184;52.006;5.924;2023-02-11T04:33:43;29.83;;;13.85;;
73841;SDS011;62184;52.006;5.924;2023-02-11T04:36:09;35.55;;;14.93;;
73841;SDS011;62184;52.006;5.924;2023-02-11T04:38:36;31.02;;;15.30;;
73841;SDS011;62184;52.006;5.924;2023-02-11T04:41:02;35.53;;;16.58;;
73841;SDS011;62184;52.006;5.924;2023-02-11T04:43:32;32.00;;;15.80;;
73841;SDS011;62184;52.006;5.924;2023-02-11T04:45:58;32.92;;;16.38;;
73841;SDS011;62184;52.006;5.924;2023-02-11T04:48:25;34.88;;;16.15;;
73841;SDS011;62184;52.006;5.924;2023-02-11T04:50:51;33.77;;;15.47;;
73841;SDS011;62184;52.006;5.924;2023-02-11T04:53:18;30.38;;;14.57;;
73841;SDS011;62184;52.006;5.924;2023-02-11T04:55:47;32.10;;;15.65;;
73841;SDS011;62184;52.006;5.924;2023-02-11T04:58:14;34.30;;;16.35;;
73841;SDS011;62184;52.006;5.924;2023-02-11T05:00:43;35.13;;;16.27;;
73841;SDS011;62184;52.006;5.924;2023-02-11T05:03:09;33.90;;;15.87;;
73841;SDS011;62184;52.006;5.924;2023-02-11T05:05:36;32.85;;;16.13;;
73841;SDS011;62184;52.006;5.924;2023-02-11T05:08:03;36.10;;;17.30;;
73841;SDS011;62184;52.006;5.924;2023-02-11T05:10:30;36.85;;;17.63;;
73841;SDS011;62184;52.006;5.924;2023-02-11T05:12:56;36.35;;;16.98;;
73841;SDS011;62184;52.006;5.924;2023-02-11T05:15:22;33.75;;;16.85;;
73841;SDS011;62184;52.006;5.924;2023-02-11T05:17:52;36.50;;;17.30;;
73841;SDS011;62184;52.006;5.924;2023-02-11T05:20:18;35.83;;;17.70;;
73841;SDS011;62184;52.006;5.924;2023-02-11T05:22:45;36.22;;;17.98;;
73841;SDS011;62184;52.006;5.924;2023-02-11T05:25:11;34.70;;;17.83;;
73841;SDS011;62184;52.006;5.924;2023-02-11T05:27:38;37.38;;;18.20;;
73841;SDS011;62184;52.006;5.924;2023-02-11T05:30:05;38.25;;;18.15;;
73841;SDS011;62184;52.006;5.924;2023-02-11T05:32:33;36.75;;;19.10;;
73841;SDS011;62184;52.006;5.924;2023-02-11T05:35:02;38.90;;;18.65;;
73841;SDS011;62184;52.006;5.924;2023-02-11T05:37:29;39.58;;;19.35;;
73841;SDS011;62184;52.006;5.924;2023-02-11T05:39:56;41.33;;;19.67;;
73841;SDS011;62184;52.006;5.924;2023-02-11T05:42:22;37.92;;;18.88;;
73841;SDS011;62184;52.006;5.924;2023-02-11T05:44:49;35.05;;;19.15;;
73841;SDS011;62184;52.006;5.924;2023-02-11T05:47:15;40.55;;;19.55;;
73841;SDS011;62184;52.006;5.924;2023-02-11T05:49:41;37.45;;;19.73;;
73841;SDS011;62184;52.006;5.924;2023-02-11T05:52:10;39.38;;;19.50;;
73841;SDS011;62184;52.006;5.924;2023-02-11T05:54:37;38.58;;;19.05;;
73841;SDS011;62184;52.006;5.924;2023-02-11T05:57:04;41.65;;;19.90;;
73841;SDS011;62184;52.006;5.924;2023-02-11T05:59:30;42.13;;;20.65;;
73841;SDS011;62184;52.006;5.924;2023-02-11T06:01:56;43.63;;;21.33;;
73841;SDS011;62184;52.006;5.924;2023-02-11T06:04:23;41.47;;;20.23;;
73841;SDS011;62184;52.006;5.924;2023-02-11T06:06:49;39.10;;;20.10;;
73841;SDS011;62184;52.006;5.924;2023-02-11T06:09:18;39.53;;;20.07;;
73841;SDS011;62184;52.006;5.924;2023-02-11T06:11:45;40.85;;;20.73;;
73841;SDS011;62184;52.006;5.924;2023-02-11T06:14:11;44.05;;;21.42;;
73841;SDS011;62184;52.006;5.924;2023-02-11T06:16:38;47.50;;;22.20;;
73841;SDS011;62184;52.006;5.924;2023-02-11T06:19:04;40.40;;;21.20;;
73841;SDS011;62184;52.006;5.924;2023-02-11T06:21:31;43.40;;;21.33;;
73841;SDS011;62184;52.006;5.924;2023-02-11T06:23:57;43.27;;;21.50;;
73841;SDS011;62184;52.006;5.924;2023-02-11T06:26:26;46.20;;;22.02;;
73841;SDS011;62184;52.006;5.924;2023-02-11T06:28:53;46.67;;;22.52;;
73841;SDS011;62184;52.006;5.924;2023-02-11T06:31:19;45.60;;;21.75;;
73841;SDS011;62184;52.006;5.924;2023-02-11T06:33:45;45.23;;;23.27;;
73841;SDS011;62184;52.006;5.924;2023-02-11T06:36:13;51.03;;;23.27;;
73841;SDS011;62184;52.006;5.924;2023-02-11T06:38:41;48.60;;;23.27;;
73841;SDS011;62184;52.006;5.924;2023-02-11T06:41:08;47.30;;;22.55;;
73841;SDS011;62184;52.006;5.924;2023-02-11T06:43:38;48.05;;;24.10;;
73841;SDS011;62184;52.006;5.924;2023-02-11T06:46:06;45.00;;;23.17;;
73841;SDS011;62184;52.006;5.924;2023-02-11T06:48:34;45.67;;;23.50;;
73841;SDS011;62184;52.006;5.924;2023-02-11T06:51:00;45.70;;;22.93;;
73841;SDS011;62184;52.006;5.924;2023-02-11T06:53:28;50.40;;;23.65;;
73841;SDS011;62184;52.006;5.924;2023-02-11T06:55:54;55.42;;;24.02;;
73841;SDS011;62184;52.006;5.924;2023-02-11T06:58:21;50.83;;;23.52;;
73841;SDS011;62184;52.006;5.924;2023-02-11T07:00:50;49.42;;;24.10;;
73841;SDS011;62184;52.006;5.924;2023-02-11T07:03:16;52.07;;;23.97;;
73841;SDS011;62184;52.006;5.924;2023-02-11T07:05:43;53.92;;;24.30;;
73841;SDS011;62184;52.006;5.924;2023-02-11T07:08:09;52.45;;;24.15;;
73841;SDS011;62184;52.006;5.924;2023-02-11T07:10:36;54.38;;;25.58;;
73841;SDS011;62184;52.006;5.924;2023-02-11T07:13:02;50.97;;;24.52;;
73841;SDS011;62184;52.006;5.924;2023-02-11T07:15:29;53.33;;;24.98;;
73841;SDS011;62184;52.006;5.924;2023-02-11T07:17:58;51.55;;;24.52;;
73841;SDS011;62184;52.006;5.924;2023-02-11T07:20:24;57.83;;;26.10;;
73841;SDS011;62184;52.006;5.924;2023-02-11T07:22:51;59.60;;;25.40;;
73841;SDS011;62184;52.006;5.924;2023-02-11T07:25:17;55.60;;;25.05;;
73841;SDS011;62184;52.006;5.924;2023-02-11T07:27:44;58.50;;;25.17;;
73841;SDS011;62184;52.006;5.924;2023-02-11T07:30:11;54.88;;;24.92;;
73841;SDS011;62184;52.006;5.924;2023-02-11T07:32:39;59.95;;;25.80;;
73841;SDS011;62184;52.006;5.924;2023-02-11T07:35:08;56.65;;;25.58;;
73841;SDS011;62184;52.006;5.924;2023-02-11T07:37:35;56.43;;;25.00;;
73841;SDS011;62184;52.006;5.924;2023-02-11T07:40:02;57.80;;;25.75;;
73841;SDS011;62184;52.006;5.924;2023-02-11T07:42:29;58.13;;;26.23;;
73841;SDS011;62184;52.006;5.924;2023-02-11T07:44:55;61.88;;;27.80;;
73841;SDS011;62184;52.006;5.924;2023-02-11T07:47:22;58.20;;;25.85;;
73841;SDS011;62184;52.006;5.924;2023-02-11T07:49:48;59.00;;;26.35;;
73841;SDS011;62184;52.006;5.924;2023-02-11T07:52:17;56.50;;;25.92;;
73841;SDS011;62184;52.006;5.924;2023-02-11T07:54:44;59.28;;;26.10;;
73841;SDS011;62184;52.006;5.924;2023-02-11T07:57:13;58.50;;;27.60;;
73841;SDS011;62184;52.006;5.924;2023-02-11T07:59:39;56.07;;;25.53;;
73841;SDS011;62184;52.006;5.924;2023-02-11T08:02:06;55.38;;;26.27;;
73841;SDS011;62184;52.006;5.924;2023-02-11T08:04:34;56.80;;;26.33;;
73841;SDS011;62184;52.006;5.924;2023-02-11T08:07:00;55.63;;;27.38;;
73841;SDS011;62184;52.006;5.924;2023-02-11T08:09:29;55.83;;;26.23;;
73841;SDS011;62184;52.006;5.924;2023-02-11T08:11:55;59.92;;;26.58;;
73841;SDS011;62184;52.006;5.924;2023-02-11T08:14:22;57.25;;;26.13;;
73841;SDS011;62184;52.006;5.924;2023-02-11T08:16:48;57.75;;;26.83;;
73841;SDS011;62184;52.006;5.924;2023-02-11T08:19:15;58.13;;;26.80;;
73841;SDS011;62184;52.006;5.924;2023-02-11T08:21:42;57.17;;;27.10;;
73841;SDS011;62184;52.006;5.924;2023-02-11T08:24:09;55.10;;;26.47;;
73841;SDS011;62184;52.006;5.924;2023-02-11T08:26:39;56.40;;;26.60;;
73841;SDS011;62184;52.006;5.924;2023-02-11T08:29:06;56.78;;;26.52;;
73841;SDS011;62184;52.006;5.924;2023-02-11T08:31:36;60.20;;;27.00;;
73841;SDS011;62184;52.006;5.924;2023-02-11T08:34:06;57.50;;;26.58;;
73841;SDS011;62184;52.006;5.924;2023-02-11T08:36:34;58.57;;;27.17;;
73841;SDS011;62184;52.006;5.924;2023-02-11T08:39:04;56.65;;;26.48;;
73841;SDS011;62184;52.006;5.924;2023-02-11T08:41:39;56.08;;;26.17;;
73841;SDS011;62184;52.006;5.924;2023-02-11T08:44:06;59.20;;;26.90;;
73841;SDS011;62184;52.006;5.924;2023-02-11T08:46:32;54.50;;;26.15;;
73841;SDS011;62184;52.006;5.924;2023-02-11T08:48:59;53.10;;;25.58;;
73841;SDS011;62184;52.006;5.924;2023-02-11T08:51:26;54.43;;;25.70;;
73841;SDS011;62184;52.006;5.924;2023-02-11T08:53:54;50.38;;;25.20;;
73841;SDS011;62184;52.006;5.924;2023-02-11T08:56:21;51.65;;;25.58;;
73841;SDS011;62184;52.006;5.924;2023-02-11T08:58:51;53.72;;;26.17;;
73841;SDS011;62184;52.006;5.924;2023-02-11T09:01:19;50.30;;;24.45;;
73841;SDS011;62184;52.006;5.924;2023-02-11T09:03:48;49.28;;;24.08;;
73841;SDS011;62184;52.006;5.924;2023-02-11T09:06:15;47.97;;;24.58;;
73841;SDS011;62184;52.006;5.924;2023-02-11T09:08:43;44.73;;;23.70;;
73841;SDS011;62184;52.006;5.924;2023-02-11T09:11:12;45.40;;;23.80;;
73841;SDS011;62184;52.006;5.924;2023-02-11T09:13:39;48.20;;;23.77;;
73841;SDS011;62184;52.006;5.924;2023-02-11T09:16:14;47.08;;;23.42;;
73841;SDS011;62184;52.006;5.924;2023-02-11T09:18:44;42.67;;;22.85;;
73841;SDS011;62184;52.006;5.924;2023-02-11T09:21:12;42.47;;;23.05;;
73841;SDS011;62184;52.006;5.924;2023-02-11T09:23:41;42.25;;;23.17;;
73841;SDS011;62184;52.006;5.924;2023-02-11T09:26:08;46.13;;;23.17;;
73841;SDS011;62184;52.006;5.924;2023-02-11T09:28:39;43.10;;;21.83;;
73841;SDS011;62184;52.006;5.924;2023-02-11T09:31:06;42.17;;;22.42;;
73841;SDS011;62184;52.006;5.924;2023-02-11T09:33:41;39.25;;;21.17;;
73841;SDS011;62184;52.006;5.924;2023-02-11T09:36:10;39.93;;;22.23;;
73841;SDS011;62184;52.006;5.924;2023-02-11T09:38:37;41.78;;;22.80;;
73841;SDS011;62184;52.006;5.924;2023-02-11T09:41:03;40.58;;;21.63;;
73841;SDS011;62184;52.006;5.924;2023-02-11T09:43:32;41.53;;;22.17;;
73841;SDS011;62184;52.006;5.924;2023-02-11T09:46:10;41.50;;;22.60;;
73841;SDS011;62184;52.006;5.924;2023-02-11T09:48:41;42.65;;;22.27;;
73841;SDS011;62184;52.006;5.924;2023-02-11T09:51:14;41.53;;;22.55;;
73841;SDS011;62184;52.006;5.924;2023-02-11T09:53:49;39.65;;;21.95;;
73841;SDS011;62184;52.006;5.924;2023-02-11T09:56:22;41.55;;;21.92;;
73841;SDS011;62184;52.006;5.924;2023-02-11T09:58:50;39.95;;;21.67;;
73841;SDS011;62184;52.006;5.924;2023-02-11T10:01:20;43.67;;;22.55;;
73841;SDS011;62184;52.006;5.924;2023-02-11T10:04:03;39.60;;;20.87;;
73841;SDS011;62184;52.006;5.924;2023-02-11T10:06:39;39.67;;;21.47;;
73841;SDS011;62184;52.006;5.924;2023-02-11T10:09:19;39.65;;;22.10;;
73841;SDS011;62184;52.006;5.924;2023-02-11T10:12:12;44.03;;;22.60;;
73841;SDS011;62184;52.006;5.924;2023-02-11T10:15:03;38.97;;;21.65;;
73841;SDS011;62184;52.006;5.924;2023-02-11T10:17:46;40.05;;;21.73;;
73841;SDS011;62184;52.006;5.924;2023-02-11T10:20:32;40.30;;;21.63;;
73841;SDS011;62184;52.006;5.924;2023-02-11T10:23:07;37.95;;;20.98;;
73841;SDS011;62184;52.006;5.924;2023-02-11T10:25:41;37.72;;;21.42;;
73841;SDS011;62184;52.006;5.924;2023-02-11T10:28:11;37.88;;;21.35;;
73841;SDS011;62184;52.006;5.924;2023-02-11T10:30:42;39.78;;;21.00;;
73841;SDS011;62184;52.006;5.924;2023-02-11T10:33:25;36.35;;;20.85;;
73841;SDS011;62184;52.006;5.924;2023-02-11T10:35:57;35.88;;;21.10;;
73841;SDS011;62184;52.006;5.924;2023-02-11T10:38:24;34.58;;;20.65;;
73841;SDS011;62184;52.006;5.924;2023-02-11T10:40:52;35.45;;;20.02;;
73841;SDS011;62184;52.006;5.924;2023-02-11T10:43:19;38.90;;;20.38;;
73841;SDS011;62184;52.006;5.924;2023-02-11T10:45:52;36.30;;;20.20;;
73841;SDS011;62184;52.006;5.924;2023-02-11T10:51:16;35.30;;;20.02;;
73841;SDS011;62184;52.006;5.924;2023-02-11T10:53:48;33.43;;;19.70;;
73841;SDS011;62184;52.006;5.924;2023-02-11T10:56:34;34.77;;;19.23;;
73841;SDS011;62184;52.006;5.924;2023-02-11T10:59:06;30.92;;;18.67;;
73841;SDS011;62184;52.006;5.924;2023-02-11T11:01:46;30.85;;;18.52;;
73841;SDS011;62184;52.006;5.924;2023-02-11T11:07:15;33.88;;;19.08;;
73841;SDS011;62184;52.006;5.924;2023-02-11T11:09:47;31.13;;;18.65;;
73841;SDS011;62184;52.006;5.924;2023-02-11T11:12:22;28.80;;;17.73;;
73841;SDS011;62184;52.006;5.924;2023-02-11T11:14:53;32.43;;;18.53;;
73841;SDS011;62184;52.006;5.924;2023-02-11T11:17:21;30.77;;;18.10;;
73841;SDS011;62184;52.006;5.924;2023-02-11T11:19:50;29.07;;;17.90;;
73841;SDS011;62184;52.006;5.924;2023-02-11T11:22:20;29.33;;;18.08;;
73841;SDS011;62184;52.006;5.924;2023-02-11T11:24:48;29.60;;;18.00;;
73841;SDS011;62184;52.006;5.924;2023-02-11T11:27:16;29.70;;;17.55;;
73841;SDS011;62184;52.006;5.924;2023-02-11T11:29:46;28.70;;;17.58;;
73841;SDS011;62184;52.006;5.924;2023-02-11T11:32:18;28.25;;;17.52;;
73841;SDS011;62184;52.006;5.924;2023-02-11T11:34:51;28.75;;;17.77;;
73841;SDS011;62184;52.006;5.924;2023-02-11T11:37:21;28.15;;;17.88;;
73841;SDS011;62184;52.006;5.924;2023-02-11T11:39:54;29.20;;;18.20;;
73841;SDS011;62184;52.006;5.924;2023-02-11T11:42:26;27.33;;;17.65;;
73841;SDS011;62184;52.006;5.924;2023-02-11T11:44:56;27.73;;;17.60;;
73841;SDS011;62184;52.006;5.924;2023-02-11T11:47:28;29.50;;;18.10;;
73841;SDS011;62184;52.006;5.924;2023-02-11T11:52:59;26.10;;;15.80;;
73841;SDS011;62184;52.006;5.924;2023-02-11T11:55:33;26.80;;;17.10;;
73841;SDS011;62184;52.006;5.924;2023-02-11T11:58:08;25.63;;;16.35;;
73841;SDS011;62184;52.006;5.924;2023-02-11T12:00:42;26.17;;;15.68;;
73841;SDS011;62184;52.006;5.924;2023-02-11T12:03:27;24.20;;;15.27;;
73841;SDS011;62184;52.006;5.924;2023-02-11T12:06:33;24.53;;;15.00;;
73841;SDS011;62184;52.006;5.924;2023-02-11T12:09:14;24.55;;;14.75;;
73841;SDS011;62184;52.006;5.924;2023-02-11T12:14:54;21.90;;;15.05;;
73841;SDS011;62184;52.006;5.924;2023-02-11T12:17:40;24.05;;;14.48;;
73841;SDS011;62184;52.006;5.924;2023-02-11T12:20:26;23.38;;;14.30;;
73841;SDS011;62184;52.006;5.924;2023-02-11T12:23:20;21.15;;;13.77;;
73841;SDS011;62184;52.006;5.924;2023-02-11T12:26:11;20.20;;;13.10;;
73841;SDS011;62184;52.006;5.924;2023-02-11T12:28:56;22.63;;;12.90;;
73841;SDS011;62184;52.006;5.924;2023-02-11T12:31:41;20.33;;;12.88;;
73841;SDS011;62184;52.006;5.924;2023-02-11T12:34:32;19.95;;;13.20;;
73841;SDS011;62184;52.006;5.924;2023-02-11T12:37:17;19.20;;;12.43;;
73841;SDS011;62184;52.006;5.924;2023-02-11T12:40:08;20.55;;;12.45;;
73841;SDS011;62184;52.006;5.924;2023-02-11T12:42:51;18.70;;;11.63;;
73841;SDS011;62184;52.006;5.924;2023-02-11T12:45:41;18.15;;;11.43;;
73841;SDS011;62184;52.006;5.924;2023-02-11T12:48:24;19.50;;;11.33;;
73841;SDS011;62184;52.006;5.924;2023-02-11T12:51:15;18.50;;;11.43;;
73841;SDS011;62184;52.006;5.924;2023-02-11T12:54:08;18.73;;;10.98;;
73841;SDS011;62184;52.006;5.924;2023-02-11T12:56:53;19.20;;;11.43;;
73841;SDS011;62184;52.006;5.924;2023-02-11T12:59:33;17.83;;;10.75;;
73841;SDS011;62184;52.006;5.924;2023-02-11T13:02:17;15.73;;;10.60;;
73841;SDS011;62184;52.006;5.924;2023-02-11T13:04:55;16.40;;;10.27;;
73841;SDS011;62184;52.006;5.924;2023-02-11T13:07:30;16.97;;;10.50;;
73841;SDS011;62184;52.006;5.924;2023-02-11T13:10:04;17.15;;;10.57;;
73841;SDS011;62184;52.006;5.924;2023-02-11T13:12:50;16.70;;;10.52;;
73841;SDS011;62184;52.006;5.924;2023-02-11T13:15:20;16.83;;;10.18;;
73841;SDS011;62184;52.006;5.924;2023-02-11T13:17:49;16.13;;;10.02;;
73841;SDS011;62184;52.006;5.924;2023-02-11T13:20:30;17.27;;;9.98;;
73841;SDS011;62184;52.006;5.924;2023-02-11T13:23:07;15.82;;;10.00;;
73841;SDS011;62184;52.006;5.924;2023-02-11T13:25:49;16.85;;;9.70;;
73841;SDS011;62184;52.006;5.924;2023-02-11T13:28:31;15.05;;;9.45;;
73841;SDS011;62184;52.006;5.924;2023-02-11T13:31:10;15.43;;;9.20;;
73841;SDS011;62184;52.006;5.924;2023-02-11T13:33:37;14.30;;;9.20;;
73841;SDS011;62184;52.006;5.924;2023-02-11T13:36:13;15.05;;;9.30;;
73841;SDS011;62184;52.006;5.924;2023-02-11T13:38:56;13.25;;;9.20;;
73841;SDS011;62184;52.006;5.924;2023-02-11T13:41:31;14.73;;;9.20;;
73841;SDS011;62184;52.006;5.924;2023-02-11T13:44:05;15.88;;;9.10;;
73841;SDS011;62184;52.006;5.924;2023-02-11T13:46:48;14.02;;;8.90;;
73841;SDS011;62184;52.006;5.924;2023-02-11T13:49:21;14.02;;;8.85;;
73841;SDS011;62184;52.006;5.924;2023-02-11T13:51:52;13.83;;;9.03;;
73841;SDS011;62184;52.006;5.924;2023-02-11T13:54:22;15.55;;;9.10;;
73841;SDS011;62184;52.006;5.924;2023-02-11T13:59:57;14.68;;;8.77;;
73841;SDS011;62184;52.006;5.924;2023-02-11T14:02:27;14.85;;;9.20;;
73841;SDS011;62184;52.006;5.924;2023-02-11T14:05:15;16.48;;;10.10;;
73841;SDS011;62184;52.006;5.924;2023-02-11T14:10:48;19.63;;;11.53;;
73841;SDS011;62184;52.006;5.924;2023-02-11T14:13:18;17.83;;;12.18;;
73841;SDS011;62184;52.006;5.924;2023-02-11T14:15:56;18.33;;;11.95;;
73841;SDS011;62184;52.006;5.924;2023-02-11T14:21:30;19.70;;;12.40;;
73841;SDS011;62184;52.006;5.924;2023-02-11T14:27:16;20.80;;;12.63;;
73841;SDS011;62184;52.006;5.924;2023-02-11T14:29:56;20.38;;;12.68;;
73841;SDS011;62184;52.006;5.924;2023-02-11T14:32:42;18.97;;;11.97;;
73841;SDS011;62184;52.006;5.924;2023-02-11T14:35:29;19.63;;;12.20;;
73841;SDS011;62184;52.006;5.924;2023-02-11T14:38:06;18.23;;;11.90;;
73841;SDS011;62184;52.006;5.924;2023-02-11T14:40:49;18.20;;;11.70;;
73841;SDS011;62184;52.006;5.924;2023-02-11T14:43:27;19.15;;;11.68;;
73841;SDS011;62184;52.006;5.924;2023-02-11T14:46:03;19.77;;;11.43;;
73841;SDS011;62184;52.006;5.924;2023-02-11T14:48:33;17.80;;;11.20;;
73841;SDS011;62184;52.006;5.924;2023-02-11T14:51:03;18.67;;;11.63;;
73841;SDS011;62184;52.006;5.924;2023-02-11T14:53:34;19.70;;;11.57;;
73841;SDS011;62184;52.006;5.924;2023-02-11T14:56:14;18.40;;;11.40;;
73841;SDS011;62184;52.006;5.924;2023-02-11T14:58:45;19.25;;;11.52;;
73841;SDS011;62184;52.006;5.924;2023-02-11T15:01:21;17.80;;;11.50;;
73841;SDS011;62184;52.006;5.924;2023-02-11T15:03:55;16.25;;;10.70;;
73841;SDS011;62184;52.006;5.924;2023-02-11T15:06:23;18.13;;;10.43;;
73841;SDS011;62184;52.006;5.924;2023-02-11T15:08:54;16.65;;;10.32;;
73841;SDS011;62184;52.006;5.924;2023-02-11T15:11:26;16.05;;;10.23;;
73841;SDS011;62184;52.006;5.924;2023-02-11T15:13:59;16.27;;;10.38;;
73841;SDS011;62184;52.006;5.924;2023-02-11T15:16:38;17.00;;;9.68;;
73841;SDS011;62184;52.006;5.924;2023-02-11T15:19:10;15.23;;;9.30;;